Advertisement


Cork (ORK)

ethanegcc

Platinum Member
Jul 10, 2016
2,109
163
UK
Secures DY TATL:
The first ever transatlantic flights from Cork, and new US routes from Dublin and Shannon, with fares from €69. From 1st July, Norwegian will the first ever transatlantic flights from Cork with a service to Providence Airport, together with new US routes from Shannon and Dublin to Stewart International Airport and Providence. Fares start from €69 one way.
 

Advertisement


ethanegcc

Platinum Member
Jul 10, 2016
2,109
163
UK
Cork – three transatlantic flights per week from €69:

  • Providence (greater Boston) – 3x weekly flights (Tues, Thurs, Sat). Depart Cork 16:20, arrive Providence 19:05
 

Aviador

Administrator
Staff member
I've upgraded to support F4A!
Jan 12, 2009
13,007
323
HEAD OFFICE
Grim reading for the Cork TAF with mean winds of 40 knots gusting to at least 60 knots forecast for tomorrow morning.

TAF: EICK 151548Z 1515/1612 36005KT 2500 -RADZ BKN002 TEMPO 1517/1603 0200 FG -DZ BKN001 PROB30 TEMPO 1517/1521 4000 SCT002 BKN004 BECMG 1603/1606 07020G30KT 9999 NSW SCT025 BECMG 1607/1609 17030G45KT BECMG 1609/1611 17040G60KT
 

Aviador

Administrator
Staff member
I've upgraded to support F4A!
Jan 12, 2009
13,007
323
HEAD OFFICE
The latest forecast updated TAF is giving mean winds expected to reach 50 knots with gusts upto 70 knots.

TAF: EICK 152300Z 1600/1624 12009KT 2000 -RADZ BKN002 TEMPO 1600/1603 0200 FG -DZ BKN001 BECMG 1602/1604 08015G25KT BECMG 1604/1606 14020G30KT 9999 NSW SCT025 BECMG 1606/1608 17035G50KT BECMG 1608/1610 17040G60KT TEMPO 1611/1614 18050G70KT 3000 +RA BKN014 BECMG 1614/1616 23035G50KT BECMG 1618/1621 25022G35KT

I think it is safe to say that most services in and out of cork will be cancelled today.
 

jfy1999

Moderator
Staff member
Apr 25, 2015
2,993
200
Birmingham
Good news for Cork, but I never knew that an extra based aircraft will only result in 2 passengers per year.
Not sure how it can be an increase of 17% either as they must have been carrying either 1 or 0 passengers per year previously :unsure:
Ryanair’s Cork W19 schedule will deliver:


  • Two based aircraft (1 extra), $200m total investment
  • 5 new routes: Alicante (2), Budapest (2), Katowice (2) Malta (2) & Poznan (2)
  • 15 routes total
  • 2 customers p.a. (+17%)
  • 30 new Ryanair jobs
  • 900* “on-site” jobs p.a.
 

Seasider

Premium Member
I've upgraded to support F4A!
Jan 16, 2009
1,740
243
East Coast
Yet another piece of great journalism. The spell check will only tell you if it is spelt correctly, not that the facts are correct. Or is it another April Fool?
 

TheLocalYokel

Administrator
Staff member
Jan 14, 2009
12,608
343
Wurzel Country
IMPORTANT!! To reduce spam, we request that you make a post soon after completing your registration. We request you keep your account active by posting regularly. Inactive accounts risk being deleted.
Yes

Advertisement


Top Bottom